Time,TemperatureF,DewpointF,PressureIn,WindDirection,WindDirectionDegrees,WindSpeedMPH,WindSpeedGustMPH,Humidity,HourlyPrecipIn,Conditions,Clouds,dailyrainin,SoftwareType,DateUTC
2013-02-14 00:21:00,35.0,20.0,30.24,North,0,0.0,-999.0,55,0.00,,,-99.99,,2013-02-14 08:21:00,
2013-02-14 00:31:00,35.0,20.0,30.24,North,0,0.0,-999.0,55,0.00,,,-99.99,,2013-02-14 08:31:00,
2013-02-14 00:43:00,35.0,20.0,30.24,North,0,0.0,-999.0,55,0.00,,,-99.99,,2013-02-14 08:43:00,
2013-02-14 00:52:00,35.0,20.0,30.24,North,0,0.0,-999.0,55,0.00,,,-99.99,,2013-02-14 08:52:00,
2013-02-14 01:21:00,35.0,22.0,30.24,North,0,0.0,-999.0,59,0.00,,,-99.99,,2013-02-14 09:21:00,
2013-02-14 01:31:00,35.0,22.0,30.24,North,0,0.0,-999.0,59,0.00,,,-99.99,,2013-02-14 09:31:00,
2013-02-14 01:41:00,35.0,22.0,30.24,North,0,0.0,-999.0,59,0.00,,,-99.99,,2013-02-14 09:41:00,
2013-02-14 01:51:00,35.0,22.0,30.24,North,0,0.0,-999.0,59,0.00,,,-99.99,,2013-02-14 09:51:00,
2013-02-14 02:21:00,35.0,23.0,30.23,North,0,0.0,-999.0,61,0.00,,,-99.99,,2013-02-14 10:21:00,
2013-02-14 02:31:00,35.0,23.0,30.23,North,0,0.0,-999.0,61,0.00,,,-99.99,,2013-02-14 10:31:00,
2013-02-14 02:41:00,35.0,23.0,30.23,North,0,0.0,-999.0,61,0.00,,,-99.99,,2013-02-14 10:41:00,
2013-02-14 02:52:00,35.0,23.0,30.23,North,0,0.0,-999.0,61,0.00,,,-99.99,,2013-02-14 10:52:00,
2013-02-14 03:21:00,35.0,23.0,30.20,North,0,0.0,-999.0,62,0.00,,,-99.99,,2013-02-14 11:21:00,
2013-02-14 03:31:00,35.0,23.0,30.20,North,0,0.0,-999.0,62,0.00,,,-99.99,,2013-02-14 11:31:00,
2013-02-14 03:42:00,35.0,23.0,30.20,North,0,0.0,-999.0,62,0.00,,,-99.99,,2013-02-14 11:42:00,
2013-02-14 03:52:00,35.0,23.0,30.20,North,0,0.0,-999.0,62,0.00,,,-99.99,,2013-02-14 11:52:00,
2013-02-14 04:22:00,35.0,23.0,30.19,North,0,0.0,-999.0,62,0.00,,,-99.99,,2013-02-14 12:22:00,
2013-02-14 04:32:00,35.0,23.0,30.19,North,0,0.0,-999.0,62,0.00,,,-99.99,,2013-02-14 12:32:00,
2013-02-14 04:42:00,35.0,23.0,30.19,North,0,0.0,-999.0,62,0.00,,,-99.99,,2013-02-14 12:42:00,
2013-02-14 04:53:00,35.0,23.0,30.19,North,0,0.0,-999.0,62,0.00,,,-99.99,,2013-02-14 12:53:00,
2013-02-14 05:21:00,35.0,23.0,30.21,North,0,0.0,-999.0,62,0.00,,,-99.99,,2013-02-14 13:21:00,
2013-02-14 05:31:00,35.0,23.0,30.21,North,0,0.0,-999.0,62,0.00,,,-99.99,,2013-02-14 13:31:00,
2013-02-14 05:41:00,35.0,23.0,30.21,North,0,0.0,-999.0,62,0.00,,,-99.99,,2013-02-14 13:41:00,
2013-02-14 05:51:00,35.0,23.0,30.21,North,0,0.0,-999.0,62,0.00,,,-99.99,,2013-02-14 13:51:00,
2013-02-14 06:21:00,34.0,23.0,30.21,North,0,0.0,-999.0,63,0.00,,,-99.99,,2013-02-14 14:21:00,
2013-02-14 06:31:00,34.0,23.0,30.21,North,0,0.0,-999.0,63,0.00,,,-99.99,,2013-02-14 14:31:00,
2013-02-14 06:41:00,34.0,23.0,30.21,North,0,0.0,-999.0,63,0.00,,,-99.99,,2013-02-14 14:41:00,
2013-02-14 06:52:00,34.0,23.0,30.21,North,0,0.0,-999.0,63,0.00,,,-99.99,,2013-02-14 14:52:00,
2013-02-14 07:21:00,34.0,22.0,30.21,North,0,0.0,-999.0,62,0.00,,,-99.99,,2013-02-14 15:21:00,
2013-02-14 07:31:00,34.0,22.0,30.21,North,0,0.0,-999.0,62,0.00,,,-99.99,,2013-02-14 15:31:00,
2013-02-14 07:41:00,34.0,22.0,30.21,North,0,0.0,-999.0,62,0.00,,,-99.99,,2013-02-14 15:41:00,
2013-02-14 07:51:00,34.0,22.0,30.21,North,0,0.0,-999.0,62,0.00,,,-99.99,,2013-02-14 15:51:00,
2013-02-14 08:21:00,38.0,22.0,30.23,North,0,0.0,-999.0,53,0.00,,,-99.99,,2013-02-14 16:21:00,
2013-02-14 08:32:00,38.0,22.0,30.23,North,0,0.0,-999.0,53,0.00,,,-99.99,,2013-02-14 16:32:00,
2013-02-14 08:41:00,38.0,22.0,30.23,North,0,0.0,-999.0,53,0.00,,,-99.99,,2013-02-14 16:41:00,
2013-02-14 08:51:00,38.0,22.0,30.23,North,0,0.0,-999.0,53,0.00,,,-99.99,,2013-02-14 16:51:00,
2013-02-14 09:21:00,49.0,25.0,30.23,North,0,0.0,-999.0,38,0.00,,,-99.99,,2013-02-14 17:21:00,
2013-02-14 09:31:00,49.0,25.0,30.23,North,0,0.0,-999.0,38,0.00,,,-99.99,,2013-02-14 17:31:00,
2013-02-14 09:41:00,49.0,25.0,30.23,North,0,0.0,-999.0,38,0.00,,,-99.99,,2013-02-14 17:41:00,
2013-02-14 09:52:00,49.0,25.0,30.23,North,0,0.0,-999.0,38,0.00,,,-99.99,,2013-02-14 17:52:00,
2013-02-14 10:22:00,52.0,25.0,30.25,ESE,110,1.0,-999.0,35,0.00,,,-99.99,,2013-02-14 18:22:00,
2013-02-14 10:31:00,52.0,25.0,30.25,ESE,110,1.0,-999.0,35,0.00,,,-99.99,,2013-02-14 18:31:00,
2013-02-14 10:41:00,52.0,25.0,30.25,ESE,110,1.0,-999.0,35,0.00,,,-99.99,,2013-02-14 18:41:00,
2013-02-14 10:51:00,52.0,25.0,30.25,ESE,110,1.0,-999.0,35,0.00,,,-99.99,,2013-02-14 18:51:00,
2013-02-14 11:21:00,55.0,26.0,30.24,North,0,0.0,-999.0,33,0.00,,,-99.99,,2013-02-14 19:21:00,
2013-02-14 11:31:00,55.0,26.0,30.24,North,0,0.0,-999.0,33,0.00,,,-99.99,,2013-02-14 19:31:00,
2013-02-14 11:41:00,55.0,26.0,30.24,North,0,0.0,-999.0,33,0.00,,,-99.99,,2013-02-14 19:41:00,
2013-02-14 11:51:00,55.0,26.0,30.24,North,0,0.0,-999.0,33,0.00,,,-99.99,,2013-02-14 19:51:00,
2013-02-14 12:21:00,56.0,26.0,30.22,North,0,0.0,-999.0,31,0.00,,,-99.99,,2013-02-14 20:21:00,
2013-02-14 12:31:00,56.0,26.0,30.22,North,0,0.0,-999.0,31,0.00,,,-99.99,,2013-02-14 20:31:00,
2013-02-14 12:41:00,56.0,26.0,30.22,North,0,0.0,-999.0,31,0.00,,,-99.99,,2013-02-14 20:41:00,
2013-02-14 12:52:00,56.0,26.0,30.22,North,0,0.0,-999.0,31,0.00,,,-99.99,,2013-02-14 20:52:00,
2013-02-14 13:21:00,55.0,24.0,30.20,SE,140,1.0,-999.0,30,0.00,,,-99.99,,2013-02-14 21:21:00,
2013-02-14 13:31:00,55.0,24.0,30.20,SE,140,1.0,-999.0,30,0.00,,,-99.99,,2013-02-14 21:31:00,
2013-02-14 13:41:00,55.0,24.0,30.20,SE,140,1.0,-999.0,30,0.00,,,-99.99,,2013-02-14 21:41:00,
2013-02-14 13:51:00,55.0,24.0,30.20,SE,140,1.0,-999.0,30,0.00,,,-99.99,,2013-02-14 21:51:00,
2013-02-14 14:21:00,57.0,25.0,30.17,East,100,1.0,-999.0,29,0.00,,,-99.99,,2013-02-14 22:21:00,
2013-02-14 14:31:00,57.0,25.0,30.17,East,100,1.0,-999.0,29,0.00,,,-99.99,,2013-02-14 22:31:00,
2013-02-14 14:41:00,57.0,25.0,30.17,East,100,1.0,-999.0,29,0.00,,,-99.99,,2013-02-14 22:41:00,
2013-02-14 14:51:00,57.0,25.0,30.17,East,100,1.0,-999.0,29,0.00,,,-99.99,,2013-02-14 22:51:00,
2013-02-14 15:21:00,55.0,24.0,30.16,ESE,120,1.0,-999.0,30,0.00,,,-99.99,,2013-02-14 23:21:00,
2013-02-14 15:31:00,55.0,24.0,30.16,ESE,120,1.0,-999.0,30,0.00,,,-99.99,,2013-02-14 23:31:00,
2013-02-14 15:41:00,55.0,24.0,30.16,ESE,120,1.0,-999.0,30,0.00,,,-99.99,,2013-02-14 23:41:00,
2013-02-14 15:52:00,55.0,24.0,30.16,ESE,120,1.0,-999.0,30,0.00,,,-99.99,,2013-02-14 23:52:00,
2013-02-14 16:21:00,54.0,22.0,30.17,North,0,0.0,-999.0,29,0.00,,,-99.99,,2013-02-15 00:21:00,
2013-02-14 16:31:00,54.0,22.0,30.17,North,0,0.0,-999.0,29,0.00,,,-99.99,,2013-02-15 00:31:00,
2013-02-14 16:41:00,54.0,22.0,30.17,North,0,0.0,-999.0,29,0.00,,,-99.99,,2013-02-15 00:41:00,
2013-02-14 16:51:00,54.0,22.0,30.17,North,0,0.0,-999.0,29,0.00,,,-99.99,,2013-02-15 00:51:00,
2013-02-14 17:21:00,50.0,21.0,30.17,North,0,0.0,-999.0,31,0.00,,,-99.99,,2013-02-15 01:21:00,
2013-02-14 17:31:00,50.0,21.0,30.17,North,0,0.0,-999.0,31,0.00,,,-99.99,,2013-02-15 01:31:00,
2013-02-14 17:41:00,50.0,21.0,30.17,North,0,0.0,-999.0,31,0.00,,,-99.99,,2013-02-15 01:41:00,
2013-02-14 17:51:00,50.0,21.0,30.17,North,0,0.0,-999.0,31,0.00,,,-99.99,,2013-02-15 01:51:00,
2013-02-14 18:21:00,47.0,21.0,30.19,North,0,0.0,-999.0,35,0.00,,,-99.99,,2013-02-15 02:21:00,
2013-02-14 18:31:00,47.0,21.0,30.19,North,0,0.0,-999.0,35,0.00,,,-99.99,,2013-02-15 02:31:00,
2013-02-14 18:41:00,47.0,21.0,30.19,North,0,0.0,-999.0,35,0.00,,,-99.99,,2013-02-15 02:41:00,
2013-02-14 18:52:00,47.0,21.0,30.19,North,0,0.0,-999.0,35,0.00,,,-99.99,,2013-02-15 02:52:00,
2013-02-14 19:21:00,43.0,22.0,30.21,North,0,0.0,-999.0,42,0.00,,,-99.99,,2013-02-15 03:21:00,
2013-02-14 19:32:00,43.0,22.0,30.21,North,0,0.0,-999.0,42,0.00,,,-99.99,,2013-02-15 03:32:00,
2013-02-14 19:41:00,43.0,22.0,30.21,North,0,0.0,-999.0,42,0.00,,,-99.99,,2013-02-15 03:41:00,
2013-02-14 19:51:00,43.0,22.0,30.21,North,0,0.0,-999.0,42,0.00,,,-99.99,,2013-02-15 03:51:00,
2013-02-14 20:21:00,41.0,22.0,30.24,North,0,0.0,-999.0,47,0.00,,,-99.99,,2013-02-15 04:21:00,
2013-02-14 20:32:00,41.0,22.0,30.24,North,0,0.0,-999.0,47,0.00,,,-99.99,,2013-02-15 04:32:00,
2013-02-14 20:42:00,41.0,22.0,30.24,North,0,0.0,-999.0,47,0.00,,,-99.99,,2013-02-15 04:42:00,
2013-02-14 20:51:00,41.0,22.0,30.24,North,0,0.0,-999.0,47,0.00,,,-99.99,,2013-02-15 04:51:00,
2013-02-14 21:22:00,39.0,22.0,30.24,North,0,0.0,-999.0,51,0.00,,,-99.99,,2013-02-15 05:22:00,
2013-02-14 21:32:00,39.0,22.0,30.24,North,0,0.0,-999.0,51,0.00,,,-99.99,,2013-02-15 05:32:00,
2013-02-14 21:41:00,39.0,22.0,30.24,North,0,0.0,-999.0,51,0.00,,,-99.99,,2013-02-15 05:41:00,
2013-02-14 21:52:00,39.0,22.0,30.24,North,0,0.0,-999.0,51,0.00,,,-99.99,,2013-02-15 05:52:00,
2013-02-14 22:21:00,40.0,23.0,30.26,North,0,0.0,-999.0,51,0.00,,,-99.99,,2013-02-15 06:21:00,
2013-02-14 22:31:00,40.0,23.0,30.26,North,0,0.0,-999.0,51,0.00,,,-99.99,,2013-02-15 06:31:00,
2013-02-14 22:42:00,40.0,23.0,30.26,North,0,0.0,-999.0,51,0.00,,,-99.99,,2013-02-15 06:42:00,
2013-02-14 22:51:00,40.0,23.0,30.26,North,0,0.0,-999.0,51,0.00,,,-99.99,,2013-02-15 06:51:00,
2013-02-14 23:21:00,42.0,23.0,30.27,North,0,0.0,-999.0,46,0.00,,,-99.99,,2013-02-15 07:21:00,
2013-02-14 23:31:00,42.0,23.0,30.27,North,0,0.0,-999.0,46,0.00,,,-99.99,,2013-02-15 07:31:00,
2013-02-14 23:41:00,42.0,23.0,30.27,North,0,0.0,-999.0,46,0.00,,,-99.99,,2013-02-15 07:41:00,
2013-02-14 23:52:00,42.0,23.0,30.27,North,0,0.0,-999.0,46,0.00,,,-99.99,,2013-02-15 07:52:00,